Time;durP1;ratioP1;P1;durP2;ratioP2;P2;SDS_P1;SDS_P2;PMS_P1;PMS_P2;Temp;Humidity;BMP_temperature;BMP_pressure;BME280_temperature;BME280_humidity;BME280_pressure;Samples;Min_cycle;Max_cycle;Signal;HPM_P1;HPM_P2
2023/10/20 00:00:14;;;;;;;26.58;18.50;;;;;;;;;;5074220;28;20039;-79
2023/10/20 00:02:43;;;;;;;25.27;17.98;;;;;;;;;;5074075;28;20032;-79
2023/10/20 00:05:09;;;;;;;22.58;17.52;;;;;;;;;;5072590;28;20386;-79
2023/10/20 00:07:41;;;;;;;22.25;16.65;;;;;;;;;;5073943;28;20374;-79
2023/10/20 00:10:09;;;;;;;22.65;17.02;;;;;;;;;;5074037;28;20032;-80
2023/10/20 00:12:35;;;;;;;23.58;16.55;;;;;;;;;;5073959;28;20031;-80
2023/10/20 00:15:01;;;;;;;21.20;16.05;;;;;;;;;;5072315;28;20115;-79
2023/10/20 00:17:27;;;;;;;23.50;16.83;;;;;;;;;;5073757;28;20082;-79
2023/10/20 00:19:55;;;;;;;23.75;16.40;;;;;;;;;;5073823;28;20115;-79
2023/10/20 00:22:20;;;;;;;23.52;16.40;;;;;;;;;;5073876;28;20036;-79
2023/10/20 00:24:46;;;;;;;22.77;16.17;;;;;;;;;;5074051;28;20025;-79
2023/10/20 00:27:13;;;;;;;21.60;15.45;;;;;;;;;;5073429;28;20379;-79
2023/10/20 00:29:42;;;;;;;22.27;16.00;;;;;;;;;;5072360;28;20031;-79
2023/10/20 00:32:10;;;;;;;28.05;18.30;;;;;;;;;;5073730;28;20161;-81
2023/10/20 00:34:36;;;;;;;32.58;21.83;;;;;;;;;;5072061;28;20021;-81
2023/10/20 00:37:01;;;;;;;32.20;20.15;;;;;;;;;;5072123;28;20036;-80
2023/10/20 00:39:27;;;;;;;35.47;22.13;;;;;;;;;;5073549;28;20035;-80
2023/10/20 00:41:54;;;;;;;32.70;20.27;;;;;;;;;;5073894;28;20031;-80
2023/10/20 00:44:20;;;;;;;30.08;19.65;;;;;;;;;;5056090;28;20032;-79
2023/10/20 00:46:49;;;;;;;25.95;17.67;;;;;;;;;;5072080;28;20036;-79
2023/10/20 00:49:15;;;;;;;23.95;16.38;;;;;;;;;;5072067;28;20047;-76
2023/10/20 00:51:41;;;;;;;26.00;17.40;;;;;;;;;;5073116;28;20032;-76
2023/10/20 00:54:13;;;;;;;28.30;17.17;;;;;;;;;;5073211;28;20029;-76
2023/10/20 00:56:41;;;;;;;22.08;15.82;;;;;;;;;;5073465;28;20479;-75
2023/10/20 00:59:07;;;;;;;24.17;15.23;;;;;;;;;;5077332;28;20103;-76
2023/10/20 01:01:33;;;;;;;22.65;15.60;;;;;;;;;;5076148;28;20068;-75
2023/10/20 01:03:59;;;;;;;22.73;15.27;;;;;;;;;;5075043;28;20063;-75
2023/10/20 01:06:25;;;;;;;23.58;16.70;;;;;;;;;;5077584;28;20068;-78
2023/10/20 01:08:56;;;;;;;25.20;16.40;;;;;;;;;;5076548;28;20386;-80
2023/10/20 01:11:22;;;;;;;25.90;15.82;;;;;;;;;;5075500;28;20029;-79
2023/10/20 01:13:47;;;;;;;22.50;15.68;;;;;;;;;;5058884;28;20082;-80
2023/10/20 01:16:12;;;;;;;23.40;16.13;;;;;;;;;;5075788;28;20050;-80
2023/10/20 01:18:38;;;;;;;24.98;16.73;;;;;;;;;;5075505;28;20036;-80
2023/10/20 01:21:04;;;;;;;21.75;15.40;;;;;;;;;;5077040;28;20020;-77
2023/10/20 01:23:30;;;;;;;19.60;14.77;;;;;;;;;;5075414;28;20017;-76
2023/10/20 01:25:56;;;;;;;19.95;14.77;;;;;;;;;;5075289;28;20390;-74
2023/10/20 01:28:22;;;;;;;18.35;13.52;;;;;;;;;;5075598;28;20056;-75
2023/10/20 01:30:47;;;;;;;18.15;13.25;;;;;;;;;;5075527;28;20075;-75
2023/10/20 01:33:14;;;;;;;16.40;13.40;;;;;;;;;;5075372;28;20065;-76
2023/10/20 01:35:39;;;;;;;20.55;14.23;;;;;;;;;;5079358;28;20111;-75
2023/10/20 01:38:05;;;;;;;21.25;15.50;;;;;;;;;;5077688;28;20021;-73
2023/10/20 01:40:32;;;;;;;19.88;14.88;;;;;;;;;;5076118;28;20035;-73
2023/10/20 01:42:58;;;;;;;18.08;13.60;;;;;;;;;;5075228;28;20024;-74
2023/10/20 01:45:23;;;;;;;21.08;14.57;;;;;;;;;;5075310;28;20371;-73
2023/10/20 01:47:49;;;;;;;19.90;15.13;;;;;;;;;;5075615;28;20382;-73
2023/10/20 01:50:15;;;;;;;20.30;14.75;;;;;;;;;;5074616;28;20044;-73
2023/10/20 01:52:42;;;;;;;22.52;15.60;;;;;;;;;;5076334;28;20112;-73
2023/10/20 01:55:08;;;;;;;17.88;12.88;;;;;;;;;;5075183;28;20487;-73
2023/10/20 01:57:44;;;;;;;17.50;12.70;;;;;;;;;;5058730;28;20028;-79
2023/10/20 02:00:13;;;;;;;17.73;13.40;;;;;;;;;;5075031;28;20036;-73
2023/10/20 02:02:40;;;;;;;16.83;12.98;;;;;;;;;;5076267;28;20029;-73
2023/10/20 02:05:08;;;;;;;14.10;11.98;;;;;;;;;;5057823;28;20027;-77
2023/10/20 02:07:33;;;;;;;15.10;11.77;;;;;;;;;;5075868;22;20140;-73
2023/10/20 02:10:01;;;;;;;15.55;11.77;;;;;;;;;;5087744;22;20139;-77
2023/10/20 02:12:27;;;;;;;15.60;12.27;;;;;;;;;;5076135;28;20032;-77
2023/10/20 02:14:52;;;;;;;15.40;12.15;;;;;;;;;;5058147;28;20375;-77
2023/10/20 02:17:19;;;;;;;17.52;12.13;;;;;;;;;;5076277;28;20095;-77
2023/10/20 02:19:45;;;;;;;16.25;12.40;;;;;;;;;;5057908;28;20463;-78
2023/10/20 02:22:10;;;;;;;16.15;12.25;;;;;;;;;;5058091;28;20052;-78
2023/10/20 02:24:38;;;;;;;16.65;12.88;;;;;;;;;;5075434;28;20043;-78
2023/10/20 02:27:03;;;;;;;18.00;12.98;;;;;;;;;;5057428;28;20450;-78
2023/10/20 02:29:30;;;;;;;19.00;13.20;;;;;;;;;;5075431;28;20035;-78
2023/10/20 02:31:55;;;;;;;16.02;12.57;;;;;;;;;;5057496;28;20028;-77
2023/10/20 02:34:23;;;;;;;15.10;12.27;;;;;;;;;;5075586;28;20471;-77
2023/10/20 02:36:49;;;;;;;16.10;12.70;;;;;;;;;;5075618;28;20032;-77
2023/10/20 02:39:14;;;;;;;17.25;12.82;;;;;;;;;;5075570;28;20044;-78
2023/10/20 02:41:40;;;;;;;14.88;12.13;;;;;;;;;;5057161;28;20029;-80
2023/10/20 02:44:05;;;;;;;16.35;13.20;;;;;;;;;;5057241;28;20364;-79
2023/10/20 02:46:31;;;;;;;17.73;13.05;;;;;;;;;;5075379;23;20143;-80
2023/10/20 02:48:56;;;;;;;16.67;12.30;;;;;;;;;;5075127;28;20059;-80
2023/10/20 02:51:22;;;;;;;15.40;12.23;;;;;;;;;;5075144;28;20139;-81
2023/10/20 02:53:48;;;;;;;16.75;12.98;;;;;;;;;;5073590;28;20449;-80
2023/10/20 02:56:14;;;;;;;19.17;12.20;;;;;;;;;;5073477;28;20127;-81
2023/10/20 02:58:40;;;;;;;17.35;13.35;;;;;;;;;;5073610;28;20020;-77
2023/10/20 03:01:13;;;;;;;16.50;11.90;;;;;;;;;;5074923;28;20047;-79
2023/10/20 03:03:39;;;;;;;14.75;11.85;;;;;;;;;;5073468;28;20375;-79
2023/10/20 03:06:06;;;;;;;16.50;11.80;;;;;;;;;;5074105;28;20047;-79
2023/10/20 03:08:32;;;;;;;18.70;13.60;;;;;;;;;;5074212;28;20028;-79
2023/10/20 03:10:58;;;;;;;16.58;12.40;;;;;;;;;;5074476;28;20379;-79
2023/10/20 03:13:23;;;;;;;17.70;11.98;;;;;;;;;;5075136;28;20020;-78
2023/10/20 03:15:52;;;;;;;14.75;11.30;;;;;;;;;;5073474;28;20033;-79
2023/10/20 03:18:19;;;;;;;15.05;11.80;;;;;;;;;;5073642;28;20028;-78
2023/10/20 03:20:45;;;;;;;15.68;11.85;;;;;;;;;;5073239;28;20387;-78
2023/10/20 03:23:10;;;;;;;17.60;12.20;;;;;;;;;;5074631;28;20029;-77
2023/10/20 03:25:36;;;;;;;17.25;12.05;;;;;;;;;;5073267;28;20021;-78
2023/10/20 03:28:03;;;;;;;15.93;12.00;;;;;;;;;;5073579;28;20040;-79
2023/10/20 03:30:30;;;;;;;15.40;11.75;;;;;;;;;;5073050;28;20106;-80
2023/10/20 03:32:55;;;;;;;13.82;10.68;;;;;;;;;;5074365;28;20024;-81
2023/10/20 03:35:21;;;;;;;13.25;10.88;;;;;;;;;;5073345;28;20041;-81
2023/10/20 03:37:54;;;;;;;14.70;11.68;;;;;;;;;;5074444;28;20363;-81
2023/10/20 03:40:44;;;;;;;18.13;11.25;;;;;;;;;;5074477;28;20481;-79
2023/10/20 03:43:10;;;;;;;15.85;11.07;;;;;;;;;;5074323;28;20074;-77
2023/10/20 03:45:41;;;;;;;16.42;11.93;;;;;;;;;;5074240;28;20434;-78
2023/10/20 03:48:10;;;;;;;18.10;11.82;;;;;;;;;;5078039;28;20498;-78
2023/10/20 03:50:38;;;;;;;20.33;14.60;;;;;;;;;;5078360;28;20387;-78
2023/10/20 03:53:04;;;;;;;21.77;15.27;;;;;;;;;;5076454;28;20012;-79
2023/10/20 03:55:30;;;;;;;18.73;14.13;;;;;;;;;;5076773;28;20042;-79
2023/10/20 03:57:56;;;;;;;18.65;13.65;;;;;;;;;;5075982;28;20522;-79
2023/10/20 04:00:27;;;;;;;20.02;14.02;;;;;;;;;;5074162;28;20032;-79
2023/10/20 04:02:53;;;;;;;19.38;13.02;;;;;;;;;;5073515;28;20108;-78
2023/10/20 04:05:19;;;;;;;19.15;12.60;;;;;;;;;;5074475;28;20501;-77
2023/10/20 04:07:47;;;;;;;16.08;12.05;;;;;;;;;;5073514;28;20078;-79
2023/10/20 04:10:12;;;;;;;18.38;14.00;;;;;;;;;;5074957;28;20033;-80
2023/10/20 04:12:55;;;;;;;17.95;13.43;;;;;;;;;;5104998;22;20723;-72
2023/10/20 04:15:25;;;;;;;20.30;15.23;;;;;;;;;;5072363;28;20124;-72
2023/10/20 04:17:55;;;;;;;22.65;15.45;;;;;;;;;;5073553;28;20024;-71
2023/10/20 04:20:21;;;;;;;19.85;14.52;;;;;;;;;;5072070;28;20024;-72
2023/10/20 04:22:50;;;;;;;19.27;14.23;;;;;;;;;;5073960;28;20028;-73
2023/10/20 04:25:20;;;;;;;18.98;14.90;;;;;;;;;;5072860;28;20542;-73
2023/10/20 04:28:01;;;;;;;;;;;;;;;;;;5072877;28;20077;-74
2023/10/20 05:02:45;;;;;;;16.35;12.40;;;;;;;;;;5077365;28;20475;-73
2023/10/20 05:05:22;;;;;;;16.65;12.95;;;;;;;;;;5076818;28;20355;-77
2023/10/20 05:07:50;;;;;;;16.90;12.48;;;;;;;;;;5077432;28;20090;-72
2023/10/20 05:10:17;;;;;;;12.45;9.55;;;;;;;;;;5059486;28;20074;-71
2023/10/20 05:12:43;;;;;;;12.07;8.90;;;;;;;;;;5059594;28;20036;-72
2023/10/20 05:15:10;;;;;;;15.07;11.85;;;;;;;;;;5090514;28;20040;-72
2023/10/20 05:17:36;;;;;;;18.42;13.30;;;;;;;;;;5076720;28;20112;-72
2023/10/20 05:20:05;;;;;;;18.63;12.63;;;;;;;;;;5076968;28;20064;-72
2023/10/20 05:22:30;;;;;;;17.90;12.18;;;;;;;;;;5076741;28;20020;-72
2023/10/20 05:24:56;;;;;;;14.07;11.73;;;;;;;;;;5075076;28;20451;-72
2023/10/20 05:27:23;;;;;;;16.38;12.75;;;;;;;;;;5075613;28;20090;-71
2023/10/20 05:29:50;;;;;;;17.38;12.48;;;;;;;;;;5075969;28;20029;-73
2023/10/20 05:32:17;;;;;;;19.10;13.30;;;;;;;;;;5076241;28;20021;-71
2023/10/20 05:34:43;;;;;;;17.58;12.50;;;;;;;;;;5076107;28;20032;-72
2023/10/20 05:37:09;;;;;;;17.67;11.88;;;;;;;;;;5074791;28;20024;-72
2023/10/20 05:39:34;;;;;;;16.40;11.65;;;;;;;;;;5073780;28;20066;-72
2023/10/20 05:42:01;;;;;;;14.57;11.32;;;;;;;;;;5074311;28;20009;-72
2023/10/20 05:44:37;;;;;;;17.98;11.95;;;;;;;;;;5075577;28;20058;-72
2023/10/20 05:47:04;;;;;;;15.65;12.15;;;;;;;;;;5074283;28;20093;-72
2023/10/20 05:49:29;;;;;;;17.88;12.10;;;;;;;;;;5076093;28;20465;-72
2023/10/20 05:51:55;;;;;;;16.55;11.73;;;;;;;;;;5076219;28;20032;-72
2023/10/20 05:54:20;;;;;;;18.60;12.77;;;;;;;;;;5074793;28;20081;-72
2023/10/20 05:56:45;;;;;;;19.13;14.38;;;;;;;;;;5075919;28;20467;-72
2023/10/20 05:59:11;;;;;;;18.10;12.70;;;;;;;;;;5073353;28;20058;-72
2023/10/20 06:01:36;;;;;;;17.95;12.20;;;;;;;;;;5073982;28;20012;-72
2023/10/20 06:04:03;;;;;;;16.90;12.50;;;;;;;;;;5072642;28;20032;-72
2023/10/20 06:06:32;;;;;;;17.05;11.88;;;;;;;;;;5072630;28;20028;-72
2023/10/20 06:08:57;;;;;;;15.90;12.90;;;;;;;;;;5073911;28;20363;-73
2023/10/20 06:11:22;;;;;;;16.90;12.15;;;;;;;;;;5073861;28;20577;-72
2023/10/20 06:13:48;;;;;;;18.05;13.30;;;;;;;;;;5081822;28;20503;-72
2023/10/20 06:16:13;;;;;;;15.50;11.48;;;;;;;;;;5077935;28;20032;-72
2023/10/20 06:18:39;;;;;;;17.42;11.40;;;;;;;;;;5095776;28;20039;-72
2023/10/20 06:21:05;;;;;;;15.68;11.48;;;;;;;;;;5095725;28;20462;-72
2023/10/20 06:23:30;;;;;;;14.40;9.90;;;;;;;;;;5095683;28;20055;-72
2023/10/20 06:25:56;;;;;;;15.98;11.30;;;;;;;;;;5095627;28;20504;-72
2023/10/20 06:28:21;;;;;;;18.98;13.07;;;;;;;;;;5077517;28;20441;-72
2023/10/20 06:30:50;;;;;;;17.38;11.60;;;;;;;;;;5095490;28;20527;-72
2023/10/20 06:35:50;;;;;;;17.40;13.13;;;;;;;;;;5095391;28;20436;-72
2023/10/20 06:38:18;;;;;;;16.80;11.45;;;;;;;;;;5077259;28;20032;-72
2023/10/20 06:40:44;;;;;;;16.38;11.63;;;;;;;;;;5077357;28;20081;-72
2023/10/20 06:43:09;;;;;;;16.35;11.25;;;;;;;;;;5095730;28;20012;-81
2023/10/20 06:45:35;;;;;;;15.05;11.30;;;;;;;;;;5095662;28;20028;-81
2023/10/20 06:48:00;;;;;;;15.23;11.38;;;;;;;;;;5077747;28;20466;-80
2023/10/20 06:50:25;;;;;;;13.93;11.25;;;;;;;;;;5077564;28;20051;-81
2023/10/20 06:52:53;;;;;;;17.20;12.10;;;;;;;;;;5096203;28;20042;-80
2023/10/20 06:55:19;;;;;;;16.63;11.23;;;;;;;;;;5094963;28;20100;-80
2023/10/20 06:57:50;;;;;;;16.35;11.02;;;;;;;;;;5072623;23;20063;-80
2023/10/20 07:00:17;;;;;;;16.58;11.00;;;;;;;;;;5093812;28;20109;-72
2023/10/20 07:05:23;;;;;;;15.15;10.98;;;;;;;;;;5095686;22;20044;-73
2023/10/20 07:08:03;;;;;;;16.30;10.15;;;;;;;;;;5085717;23;20410;-79
2023/10/20 07:10:32;;;;;;;14.07;9.55;;;;;;;;;;5059017;28;20135;-80
2023/10/20 07:13:08;;;;;;;17.67;10.13;;;;;;;;;;5102821;22;20031;-75
2023/10/20 07:15:34;;;;;;;14.47;10.73;;;;;;;;;;5039791;23;1150661;-73
2023/10/20 07:18:00;;;;;;;13.45;9.77;;;;;;;;;;5074355;28;20251;-72
2023/10/20 07:20:26;;;;;;;14.73;10.23;;;;;;;;;;5074629;28;20412;-73
2023/10/20 07:22:51;;;;;;;14.73;9.88;;;;;;;;;;5073111;28;20482;-72
2023/10/20 07:25:18;;;;;;;13.13;10.82;;;;;;;;;;5082819;22;20118;-80
2023/10/20 07:27:44;;;;;;;12.07;9.07;;;;;;;;;;5094129;22;20067;-80
2023/10/20 07:30:10;;;;;;;11.65;10.18;;;;;;;;;;5072908;28;20028;-80
2023/10/20 07:32:36;;;;;;;12.07;9.70;;;;;;;;;;5072915;28;20399;-80
2023/10/20 07:35:02;;;;;;;12.18;9.93;;;;;;;;;;5072748;28;20027;-80
2023/10/20 07:37:28;;;;;;;11.43;9.13;;;;;;;;;;5074244;28;20459;-79
2023/10/20 07:39:53;;;;;;;14.05;10.05;;;;;;;;;;5073089;28;20038;-80
2023/10/20 07:42:20;;;;;;;13.20;10.32;;;;;;;;;;5072985;28;20043;-80
2023/10/20 07:44:46;;;;;;;14.18;9.93;;;;;;;;;;5074012;28;20507;-80
2023/10/20 07:47:11;;;;;;;16.40;9.95;;;;;;;;;;5056115;28;20036;-79
2023/10/20 07:49:37;;;;;;;13.02;9.43;;;;;;;;;;5072389;28;20039;-80
2023/10/20 07:52:03;;;;;;;15.90;11.25;;;;;;;;;;5074336;28;20032;-80
2023/10/20 07:54:29;;;;;;;13.02;10.10;;;;;;;;;;5072800;28;20025;-80
2023/10/20 07:56:58;;;;;;;12.57;10.25;;;;;;;;;;5073264;28;20028;-81
2023/10/20 07:59:24;;;;;;;16.15;9.50;;;;;;;;;;5073326;28;20074;-80
2023/10/20 08:01:50;;;;;;;12.65;10.38;;;;;;;;;;5054833;28;20028;-81
2023/10/20 08:04:16;;;;;;;13.57;10.38;;;;;;;;;;5055309;28;20033;-80
2023/10/20 08:06:42;;;;;;;13.45;10.52;;;;;;;;;;5071177;28;20032;-72
2023/10/20 08:09:12;;;;;;;11.15;9.45;;;;;;;;;;5073480;28;20037;-72
2023/10/20 08:11:39;;;;;;;16.10;10.13;;;;;;;;;;5054897;28;20181;-72
2023/10/20 08:14:05;;;;;;;15.05;10.88;;;;;;;;;;5071476;28;20032;-72
2023/10/20 08:16:30;;;;;;;13.90;10.63;;;;;;;;;;5071482;28;20027;-72
2023/10/20 08:18:55;;;;;;;14.77;9.27;;;;;;;;;;5071992;28;20064;-72
2023/10/20 08:21:26;;;;;;;13.40;9.73;;;;;;;;;;5071515;28;20040;-72
2023/10/20 08:23:51;;;;;;;12.32;10.02;;;;;;;;;;5072848;28;20021;-72
2023/10/20 08:26:19;;;;;;;14.27;10.73;;;;;;;;;;5072724;28;20094;-73
2023/10/20 08:28:44;;;;;;;13.75;10.40;;;;;;;;;;5073125;28;20055;-72
2023/10/20 08:31:13;;;;;;;15.70;12.02;;;;;;;;;;5072917;28;20638;-72
2023/10/20 08:33:38;;;;;;;13.32;11.05;;;;;;;;;;5071999;28;20033;-72
2023/10/20 08:36:11;;;;;;;13.25;10.15;;;;;;;;;;5073252;28;20086;-72
2023/10/20 08:38:38;;;;;;;12.85;10.20;;;;;;;;;;5055257;28;20032;-73
2023/10/20 08:41:08;;;;;;;12.45;10.80;;;;;;;;;;5073390;28;20028;-73
2023/10/20 08:43:33;;;;;;;11.07;9.13;;;;;;;;;;5073611;28;20078;-74
2023/10/20 08:45:59;;;;;;;15.45;10.77;;;;;;;;;;5072447;28;20029;-74
2023/10/20 08:48:25;;;;;;;13.35;9.45;;;;;;;;;;5073797;28;20029;-74
2023/10/20 08:50:51;;;;;;;13.80;10.00;;;;;;;;;;5073987;28;20127;-74
2023/10/20 08:53:18;;;;;;;10.70;9.30;;;;;;;;;;5072384;28;20052;-74
2023/10/20 08:55:54;;;;;;;13.55;10.30;;;;;;;;;;5071876;28;20028;-74
2023/10/20 08:58:20;;;;;;;14.15;9.52;;;;;;;;;;5072511;28;20100;-74
2023/10/20 09:00:46;;;;;;;13.90;10.23;;;;;;;;;;5072200;28;20035;-74
2023/10/20 09:03:12;;;;;;;13.68;10.82;;;;;;;;;;5073770;28;20028;-74
2023/10/20 09:05:37;;;;;;;12.93;9.30;;;;;;;;;;5073456;28;20025;-74
2023/10/20 09:08:03;;;;;;;11.45;10.07;;;;;;;;;;5071813;28;20035;-74
2023/10/20 09:10:28;;;;;;;12.88;9.85;;;;;;;;;;5091369;22;20048;-79
2023/10/20 09:12:54;;;;;;;11.90;9.55;;;;;;;;;;5072836;28;20031;-74
2023/10/20 09:15:21;;;;;;;12.30;10.05;;;;;;;;;;5055440;28;20044;-74
2023/10/20 09:17:53;;;;;;;10.82;8.38;;;;;;;;;;5040280;28;20025;-74
2023/10/20 09:20:20;;;;;;;13.18;11.05;;;;;;;;;;5059092;28;20035;-73
2023/10/20 09:25:54;;;;;;;11.07;9.68;;;;;;;;;;5053499;28;20040;-74
2023/10/20 09:28:19;;;;;;;11.68;8.52;;;;;;;;;;5056771;28;20356;-74
2023/10/20 09:30:47;;;;;;;11.65;9.30;;;;;;;;;;5056686;28;20032;-73
2023/10/20 09:33:13;;;;;;;10.50;8.55;;;;;;;;;;5056481;28;20032;-74
2023/10/20 09:35:41;;;;;;;16.75;12.60;;;;;;;;;;5056270;28;20471;-74
2023/10/20 09:38:09;;;;;;;14.32;10.25;;;;;;;;;;5056557;28;20025;-74
2023/10/20 09:40:35;;;;;;;11.90;10.18;;;;;;;;;;5055016;28;20070;-74
2023/10/20 09:43:17;;;;;;;12.45;9.07;;;;;;;;;;5056711;28;20033;-74
2023/10/20 09:45:47;;;;;;;9.63;8.60;;;;;;;;;;5056736;28;20044;-74
2023/10/20 09:48:19;;;;;;;9.85;6.53;;;;;;;;;;5056145;28;20029;-74
2023/10/20 09:50:46;;;;;;;12.40;9.15;;;;;;;;;;5056079;28;20032;-74
2023/10/20 09:53:14;;;;;;;10.82;9.45;;;;;;;;;;5054707;28;20040;-74
2023/10/20 09:55:40;;;;;;;8.93;8.02;;;;;;;;;;5055876;28;20029;-74
2023/10/20 09:58:06;;;;;;;10.25;9.20;;;;;;;;;;5054717;28;20033;-74
2023/10/20 10:00:34;;;;;;;8.52;7.70;;;;;;;;;;5055232;28;20095;-74
2023/10/20 10:02:59;;;;;;;10.15;9.02;;;;;;;;;;5055834;28;20044;-74
2023/10/20 10:05:25;;;;;;;11.27;9.32;;;;;;;;;;5054754;28;20029;-74
2023/10/20 10:08:05;;;;;;;12.00;8.80;;;;;;;;;;5056254;28;20025;-74
2023/10/20 10:10:30;;;;;;;13.27;9.65;;;;;;;;;;5038478;28;20048;-74
2023/10/20 10:12:58;;;;;;;9.77;7.97;;;;;;;;;;5055914;28;20037;-74
2023/10/20 10:15:33;;;;;;;11.18;8.35;;;;;;;;;;5021256;28;20033;-74
2023/10/20 10:18:05;;;;;;;8.00;6.78;;;;;;;;;;5056140;28;20033;-74
2023/10/20 10:20:31;;;;;;;9.05;7.55;;;;;;;;;;5037759;28;20025;-74
2023/10/20 10:23:00;;;;;;;9.45;7.60;;;;;;;;;;5054234;28;20102;-73
2023/10/20 10:25:39;;;;;;;10.13;7.60;;;;;;;;;;5055237;28;20060;-74
2023/10/20 10:28:13;;;;;;;10.13;7.88;;;;;;;;;;5054157;28;20032;-74
2023/10/20 10:30:38;;;;;;;8.32;7.00;;;;;;;;;;5055449;28;20043;-74
2023/10/20 10:33:05;;;;;;;8.48;7.57;;;;;;;;;;5055291;28;20025;-73
2023/10/20 10:35:31;;;;;;;10.60;7.85;;;;;;;;;;5055146;28;20016;-74
2023/10/20 10:37:56;;;;;;;8.20;6.95;;;;;;;;;;5053915;28;20025;-74
2023/10/20 10:40:22;;;;;;;7.20;6.50;;;;;;;;;;5053773;28;20424;-74
2023/10/20 10:42:51;;;;;;;11.13;8.10;;;;;;;;;;5055702;28;20040;-73
2023/10/20 10:45:23;;;;;;;8.40;7.25;;;;;;;;;;5055353;28;20474;-73
2023/10/20 10:47:49;;;;;;;8.27;6.50;;;;;;;;;;5053846;28;20106;-74
2023/10/20 10:50:20;;;;;;;9.93;7.55;;;;;;;;;;5055194;28;20032;-73
2023/10/20 10:52:45;;;;;;;7.45;6.68;;;;;;;;;;5055493;28;20029;-73
2023/10/20 10:55:11;;;;;;;9.38;7.60;;;;;;;;;;5054769;28;20051;-73
2023/10/20 10:57:37;;;;;;;10.48;7.30;;;;;;;;;;5055384;28;20024;-73
2023/10/20 11:00:06;;;;;;;10.18;7.13;;;;;;;;;;5055019;28;20044;-72
2023/10/20 11:02:32;;;;;;;9.95;8.18;;;;;;;;;;5053289;28;20017;-73
2023/10/20 11:04:57;;;;;;;10.07;7.07;;;;;;;;;;5054615;28;20037;-73
2023/10/20 11:07:23;;;;;;;11.40;9.20;;;;;;;;;;5054606;28;20028;-73
2023/10/20 11:09:48;;;;;;;9.27;7.80;;;;;;;;;;5054870;28;20036;-73
2023/10/20 11:12:13;;;;;;;8.85;7.95;;;;;;;;;;5054534;28;20025;-71
2023/10/20 11:14:39;;;;;;;14.20;9.93;;;;;;;;;;5053429;28;20045;-73
2023/10/20 11:17:04;;;;;;;10.27;7.88;;;;;;;;;;5054352;28;20040;-73
2023/10/20 11:19:30;;;;;;;25.95;13.65;;;;;;;;;;5054636;28;20016;-74
2023/10/20 11:21:56;;;;;;;19.88;11.27;;;;;;;;;;5036576;28;20032;-73
2023/10/20 11:24:37;;;;;;;29.85;14.75;;;;;;;;;;5054415;28;20040;-73
2023/10/20 11:27:05;;;;;;;23.35;12.68;;;;;;;;;;5036956;28;20131;-74
2023/10/20 11:29:31;;;;;;;17.63;10.65;;;;;;;;;;5054201;28;20029;-74
2023/10/20 11:31:58;;;;;;;16.05;9.30;;;;;;;;;;5054462;28;20471;-74
2023/10/20 11:34:24;;;;;;;14.80;8.60;;;;;;;;;;5036272;28;20032;-73
2023/10/20 11:36:49;;;;;;;18.27;9.60;;;;;;;;;;5054575;28;20043;-73
2023/10/20 11:39:16;;;;;;;17.02;8.88;;;;;;;;;;5052409;28;20031;-73
2023/10/20 11:41:42;;;;;;;22.77;11.23;;;;;;;;;;5052755;28;20040;-73
2023/10/20 11:44:08;;;;;;;19.90;10.35;;;;;;;;;;5036524;28;20033;-73
2023/10/20 11:49:16;;;;;;;24.10;11.35;;;;;;;;;;5081065;22;20088;-72
2023/10/20 11:51:42;;;;;;;18.55;10.50;;;;;;;;;;5074048;28;20167;-73
2023/10/20 11:54:07;;;;;;;18.20;11.05;;;;;;;;;;5056186;28;20478;-73
2023/10/20 11:56:33;;;;;;;15.35;10.60;;;;;;;;;;5074234;28;20085;-73
2023/10/20 11:58:58;;;;;;;17.52;10.70;;;;;;;;;;5056509;28;20092;-74
2023/10/20 12:01:24;;;;;;;16.52;10.27;;;;;;;;;;5056035;28;20459;-72
2023/10/20 12:03:50;;;;;;;21.90;11.57;;;;;;;;;;5056384;28;20020;-73
2023/10/20 12:06:16;;;;;;;19.52;10.80;;;;;;;;;;5074076;28;20032;-74
2023/10/20 12:08:41;;;;;;;16.25;10.48;;;;;;;;;;5056286;28;20029;-71
2023/10/20 12:11:08;;;;;;;18.88;11.30;;;;;;;;;;5056052;28;20064;-73
2023/10/20 12:13:36;;;;;;;20.35;12.88;;;;;;;;;;5056109;28;20037;-74
2023/10/20 12:16:02;;;;;;;20.52;13.88;;;;;;;;;;5055715;28;20110;-73
2023/10/20 12:18:27;;;;;;;18.38;11.43;;;;;;;;;;5073132;28;20048;-73
2023/10/20 12:20:53;;;;;;;17.17;11.90;;;;;;;;;;5072692;28;20036;-73
2023/10/20 12:23:19;;;;;;;11.93;9.90;;;;;;;;;;5073535;28;20020;-73
2023/10/20 12:25:45;;;;;;;11.70;9.60;;;;;;;;;;5073783;28;20075;-73
2023/10/20 12:28:10;;;;;;;14.35;10.93;;;;;;;;;;5072398;28;20052;-73
2023/10/20 12:30:35;;;;;;;19.27;12.57;;;;;;;;;;5073814;28;20370;-73
2023/10/20 12:33:01;;;;;;;25.95;22.35;;;;;;;;;;5071847;28;21029;-72
2023/10/20 12:35:26;;;;;;;25.70;15.40;;;;;;;;;;5072934;28;20039;-73
2023/10/20 12:37:52;;;;;;;89.55;72.05;;;;;;;;;;5073958;28;20039;-71
2023/10/20 12:40:18;;;;;;;99.70;79.95;;;;;;;;;;5055087;28;20028;-73
2023/10/20 12:42:43;;;;;;;22.10;14.98;;;;;;;;;;5073619;28;20104;-73
2023/10/20 12:45:10;;;;;;;50.60;26.00;;;;;;;;;;5073876;28;20032;-73
2023/10/20 12:47:36;;;;;;;65.15;29.92;;;;;;;;;;5073099;28;20376;-72
2023/10/20 12:50:01;;;;;;;29.25;21.95;;;;;;;;;;5073378;28;20044;-73
2023/10/20 12:52:27;;;;;;;65.80;34.53;;;;;;;;;;5056651;28;20021;-73
2023/10/20 12:54:52;;;;;;;35.92;22.48;;;;;;;;;;5077550;28;20459;-73
2023/10/20 12:57:19;;;;;;;26.27;20.02;;;;;;;;;;5077335;28;20033;-76
2023/10/20 12:59:44;;;;;;;17.05;13.88;;;;;;;;;;5077481;28;20082;-72
2023/10/20 13:02:09;;;;;;;50.88;27.00;;;;;;;;;;5075842;28;20032;-73
2023/10/20 13:04:35;;;;;;;20.67;14.13;;;;;;;;;;5077716;28;20472;-73
2023/10/20 13:07:02;;;;;;;19.55;17.05;;;;;;;;;;5059031;28;20028;-73
2023/10/20 13:09:27;;;;;;;16.42;12.32;;;;;;;;;;5075620;28;20066;-73
2023/10/20 13:11:53;;;;;;;14.27;12.32;;;;;;;;;;5075218;28;20063;-72
2023/10/20 13:14:18;;;;;;;22.35;12.75;;;;;;;;;;5075972;28;20074;-73
2023/10/20 13:16:44;;;;;;;16.88;12.43;;;;;;;;;;5059361;28;20086;-71
2023/10/20 13:19:09;;;;;;;16.40;13.43;;;;;;;;;;5042228;28;20078;-72
2023/10/20 13:21:35;;;;;;;18.23;14.20;;;;;;;;;;5058692;28;20386;-73
2023/10/20 13:24:02;;;;;;;18.33;12.73;;;;;;;;;;5076843;28;20017;-69
2023/10/20 13:26:27;;;;;;;16.08;12.55;;;;;;;;;;5077026;28;20067;-73
2023/10/20 13:28:53;;;;;;;14.38;11.48;;;;;;;;;;5076978;28;20522;-72
2023/10/20 13:31:21;;;;;;;16.45;11.75;;;;;;;;;;5041702;28;20033;-79
2023/10/20 13:33:48;;;;;;;16.58;11.65;;;;;;;;;;5058450;28;20116;-79
2023/10/20 13:36:13;;;;;;;17.60;12.27;;;;;;;;;;5076312;28;20032;-73
2023/10/20 13:38:39;;;;;;;15.25;11.50;;;;;;;;;;5058865;28;20159;-71
2023/10/20 13:41:05;;;;;;;17.70;12.27;;;;;;;;;;5076387;28;20467;-71
2023/10/20 13:43:31;;;;;;;18.05;12.65;;;;;;;;;;5075948;28;20103;-80
2023/10/20 13:45:56;;;;;;;13.55;11.18;;;;;;;;;;5057836;28;20336;-72
2023/10/20 13:48:22;;;;;;;14.35;11.63;;;;;;;;;;5058300;28;20417;-73
2023/10/20 13:50:47;;;;;;;16.40;11.90;;;;;;;;;;5075626;28;20055;-71
2023/10/20 13:53:15;;;;;;;13.20;10.00;;;;;;;;;;5075851;28;20032;-71
2023/10/20 13:55:44;;;;;;;14.90;11.50;;;;;;;;;;5041133;28;20111;-71
2023/10/20 13:58:11;;;;;;;14.70;11.43;;;;;;;;;;5075303;28;20039;-72
2023/10/20 14:00:37;;;;;;;13.10;10.95;;;;;;;;;;5038468;28;20477;-73
2023/10/20 14:03:03;;;;;;;14.48;11.10;;;;;;;;;;5074722;28;20075;-71
2023/10/20 14:05:29;;;;;;;17.55;11.35;;;;;;;;;;5074253;28;20105;-72
2023/10/20 14:07:57;;;;;;;21.60;12.10;;;;;;;;;;5075030;28;20050;-72
2023/10/20 14:10:23;;;;;;;15.20;10.90;;;;;;;;;;5056535;28;20131;-73
2023/10/20 14:12:48;;;;;;;16.85;12.65;;;;;;;;;;5056730;28;20116;-70
2023/10/20 14:15:14;;;;;;;17.10;11.90;;;;;;;;;;5074859;28;20060;-73
2023/10/20 14:17:40;;;;;;;24.70;16.85;;;;;;;;;;5055155;28;20028;-72
2023/10/20 14:20:06;;;;;;;21.90;15.30;;;;;;;;;;5038495;28;20124;-72
2023/10/20 14:22:31;;;;;;;13.98;10.68;;;;;;;;;;5075049;28;20103;-72
2023/10/20 14:24:57;;;;;;;13.32;9.82;;;;;;;;;;5055538;28;20108;-72
2023/10/20 14:27:22;;;;;;;15.00;10.32;;;;;;;;;;5072607;28;20385;-73
2023/10/20 14:29:48;;;;;;;14.50;12.02;;;;;;;;;;5072383;28;20140;-72
2023/10/20 14:32:14;;;;;;;20.08;15.20;;;;;;;;;;5073022;28;20485;-73
2023/10/20 14:34:39;;;;;;;12.85;10.18;;;;;;;;;;5072478;28;20013;-73
2023/10/20 14:37:07;;;;;;;17.40;13.23;;;;;;;;;;5072913;28;20539;-73
2023/10/20 14:39:35;;;;;;;20.77;13.52;;;;;;;;;;5055503;28;20028;-72
2023/10/20 14:42:00;;;;;;;40.63;16.00;;;;;;;;;;5073254;28;20028;-72
2023/10/20 14:44:28;;;;;;;135.75;42.88;;;;;;;;;;5073605;28;20016;-76
2023/10/20 14:46:59;;;;;;;36.75;25.02;;;;;;;;;;5074956;28;20029;-75
2023/10/20 14:49:24;;;;;;;20.85;14.25;;;;;;;;;;5056873;28;20048;-79
2023/10/20 14:51:51;;;;;;;20.05;15.10;;;;;;;;;;5057340;28;20035;-74
2023/10/20 14:54:19;;;;;;;16.55;11.63;;;;;;;;;;5074875;28;20021;-78
2023/10/20 14:56:45;;;;;;;15.55;11.95;;;;;;;;;;5075393;28;20447;-81
2023/10/20 14:59:10;;;;;;;15.35;11.40;;;;;;;;;;5056837;28;20027;-82
2023/10/20 15:01:36;;;;;;;16.25;11.80;;;;;;;;;;5039919;28;20475;-80